createdAt,value
2023-05-08T00:02:07.983Z,6.00
2023-05-08T00:04:38.078Z,6.28
2023-05-08T00:07:11.097Z,6.22
2023-05-08T00:09:41.375Z,5.85
2023-05-08T00:12:11.348Z,6.22
2023-05-08T00:14:41.353Z,6.07
2023-05-08T00:17:11.364Z,6.60
2023-05-08T00:19:41.351Z,5.93
2023-05-08T00:22:13.926Z,6.45
2023-05-08T00:24:43.875Z,6.57
2023-05-08T00:27:14.030Z,6.40
2023-05-08T00:29:44.267Z,6.43
2023-05-08T00:32:14.414Z,6.20
2023-05-08T00:34:44.484Z,6.22
2023-05-08T00:37:17.111Z,5.68
2023-05-08T00:39:47.041Z,6.20
2023-05-08T00:42:17.030Z,6.20
2023-05-08T00:44:47.011Z,6.22
2023-05-08T00:47:17.470Z,5.95
2023-05-08T00:49:47.562Z,6.80
2023-05-08T00:52:20.844Z,6.03
2023-05-08T00:54:51.085Z,5.95
2023-05-08T00:57:21.997Z,6.63
2023-05-08T00:59:52.982Z,6.13
2023-05-08T01:02:23.726Z,6.13
2023-05-08T01:04:55.370Z,6.18
2023-05-08T01:07:28.097Z,5.65
2023-05-08T01:09:58.173Z,5.57
2023-05-08T01:12:40.765Z,6.15
2023-05-08T01:15:17.705Z,6.10
2023-05-08T01:18:04.978Z,5.70
2023-05-08T01:20:45.497Z,6.22
2023-05-08T01:24:13.497Z,5.50
2023-05-08T01:27:41.913Z,5.85
2023-05-08T01:30:49.554Z,5.93
2023-05-08T01:33:30.316Z,6.60
2023-05-08T01:36:17.203Z,5.82
2023-05-08T01:39:06.949Z,6.07
2023-05-08T01:41:40.646Z,5.93
2023-05-08T01:44:18.493Z,6.07
2023-05-08T01:46:53.017Z,6.30
2023-05-08T01:49:30.850Z,5.72
2023-05-08T01:52:07.445Z,6.35
2023-05-08T01:54:47.729Z,6.05
2023-05-08T01:57:18.785Z,6.35
2023-05-08T01:59:49.777Z,5.78
2023-05-08T02:02:21.066Z,6.45
2023-05-08T02:04:55.542Z,6.47
2023-05-08T02:07:26.841Z,6.65
2023-05-08T02:09:58.878Z,5.82
2023-05-08T02:12:32.292Z,6.07
2023-05-08T02:15:04.745Z,6.57
2023-05-08T02:17:36.554Z,5.93
2023-05-08T02:20:15.009Z,6.60
2023-05-08T02:22:48.281Z,5.97
2023-05-08T02:25:19.191Z,6.20
2023-05-08T02:27:51.438Z,6.72
2023-05-08T02:30:22.342Z,7.05
2023-05-08T02:32:54.239Z,6.57
2023-05-08T02:35:28.316Z,6.05
2023-05-08T02:38:00.184Z,7.10
2023-05-08T02:40:32.501Z,6.93
2023-05-08T02:43:02.930Z,7.22
2023-05-08T02:45:44.393Z,6.95
2023-05-08T02:48:20.625Z,6.53
2023-05-08T02:51:02.076Z,7.05
2023-05-08T02:53:39.229Z,6.40
2023-05-08T02:56:13.811Z,7.05
2023-05-08T02:58:47.705Z,6.10
2023-05-08T03:01:27.280Z,7.10
2023-05-08T03:04:06.317Z,7.10
2023-05-08T03:06:44.263Z,7.07
2023-05-08T03:09:21.160Z,7.20
2023-05-08T03:11:56.875Z,7.15
2023-05-08T03:14:30.099Z,7.53
2023-05-08T03:17:02.184Z,6.88
2023-05-08T03:19:39.125Z,6.78
2023-05-08T03:22:13.187Z,7.10
2023-05-08T03:24:45.887Z,7.13
2023-05-08T03:27:17.812Z,6.85
2023-05-08T03:29:48.836Z,7.60
2023-05-08T03:32:20.141Z,7.45
2023-05-08T03:34:51.666Z,7.32
2023-05-08T03:37:24.548Z,7.03
2023-05-08T03:39:54.763Z,7.55
2023-05-08T03:42:26.351Z,7.30
2023-05-08T03:44:57.152Z,8.00
2023-05-08T03:47:28.828Z,7.28
2023-05-08T03:49:59.133Z,8.07
2023-05-08T03:52:31.849Z,8.10
2023-05-08T03:55:01.882Z,7.55
2023-05-08T03:57:40.513Z,7.95
2023-05-08T04:00:22.980Z,7.93
2023-05-08T04:03:00.607Z,7.53
2023-05-08T04:05:39.620Z,8.35
2023-05-08T04:08:19.190Z,7.68
2023-05-08T04:10:55.745Z,8.70
2023-05-08T04:13:31.885Z,7.97
2023-05-08T04:16:11.801Z,7.70
2023-05-08T04:18:48.895Z,7.90
2023-05-08T04:21:23.482Z,7.40
2023-05-08T04:23:59.624Z,8.10
2023-05-08T04:26:30.175Z,7.95
2023-05-08T04:29:01.669Z,7.32
2023-05-08T04:31:32.788Z,7.65
2023-05-08T04:34:03.373Z,7.68
2023-05-08T04:36:34.924Z,7.82
2023-05-08T04:39:07.602Z,7.90
2023-05-08T04:41:37.881Z,7.53
2023-05-08T04:44:08.482Z,7.80
2023-05-08T04:46:38.558Z,7.90
2023-05-08T04:49:09.258Z,7.68
2023-05-08T04:51:39.202Z,7.00
2023-05-08T04:54:11.821Z,7.32
2023-05-08T04:56:41.807Z,7.22
2023-05-08T05:01:41.854Z,7.15
2023-05-08T05:04:11.921Z,7.78
2023-05-08T05:06:41.928Z,7.70
2023-05-08T05:09:14.586Z,6.93
2023-05-08T05:11:44.732Z,7.07
2023-05-08T05:14:14.784Z,6.72
2023-05-08T05:16:45.015Z,7.13
2023-05-08T05:19:15.054Z,6.60
2023-05-08T05:21:45.028Z,7.03
2023-05-08T05:24:17.595Z,7.18
2023-05-08T05:26:47.539Z,7.38
2023-05-08T05:29:17.511Z,6.45
2023-05-08T05:31:47.514Z,6.80
2023-05-08T05:34:17.515Z,6.60
2023-05-08T05:36:47.463Z,7.03
2023-05-08T05:39:20.046Z,7.07
2023-05-08T05:41:50.019Z,6.57
2023-05-08T05:44:20.183Z,6.70
2023-05-08T05:46:50.159Z,7.20
2023-05-08T05:49:20.154Z,6.68
2023-05-08T05:51:50.112Z,6.18
2023-05-08T05:54:22.660Z,6.00
2023-05-08T05:56:52.637Z,5.68
2023-05-08T05:59:22.719Z,5.28
2023-05-08T06:01:52.865Z,5.22
2023-05-08T06:04:22.994Z,5.32
2023-05-08T06:06:53.085Z,5.38
2023-05-08T06:09:25.651Z,5.20
2023-05-08T06:11:55.653Z,4.60
2023-05-08T06:14:25.682Z,4.88
2023-05-08T06:16:55.693Z,5.63
2023-05-08T06:19:26.512Z,4.97
2023-05-08T06:21:56.477Z,4.95
2023-05-08T06:24:29.101Z,5.38
2023-05-08T06:26:59.445Z,4.80
2023-05-08T06:29:29.415Z,4.47
2023-05-08T06:31:59.469Z,4.68
2023-05-08T06:34:29.484Z,4.30
2023-05-08T06:36:59.461Z,4.38
2023-05-08T06:39:32.015Z,4.82
2023-05-08T06:42:01.943Z,4.05
2023-05-08T06:44:31.925Z,4.10
2023-05-08T06:47:01.952Z,4.20
2023-05-08T06:49:31.966Z,4.03
2023-05-08T06:52:02.082Z,4.63
2023-05-08T06:54:34.693Z,3.88
2023-05-08T06:57:04.665Z,4.03
2023-05-08T06:59:34.646Z,3.95
2023-05-08T07:02:04.665Z,4.38
2023-05-08T07:04:34.738Z,3.60
2023-05-08T07:07:08.017Z,4.18
2023-05-08T07:09:40.636Z,3.80
2023-05-08T07:12:11.309Z,4.05
2023-05-08T07:14:41.253Z,3.90
2023-05-08T07:17:11.516Z,3.75
2023-05-08T07:19:42.022Z,3.05
2023-05-08T07:22:12.244Z,3.42
2023-05-08T07:24:44.818Z,3.53
2023-05-08T07:27:14.948Z,3.05
2023-05-08T07:29:44.892Z,2.90
2023-05-08T07:32:15.506Z,2.90
2023-05-08T07:34:45.474Z,2.55
2023-05-08T07:37:15.475Z,2.03
2023-05-08T07:39:48.029Z,2.30
2023-05-08T07:42:18.517Z,2.55
2023-05-08T07:44:54.829Z,2.42
2023-05-08T07:47:25.583Z,2.13
2023-05-08T07:49:56.688Z,2.22
2023-05-08T07:52:26.761Z,2.40
2023-05-08T07:54:59.368Z,2.28
2023-05-08T07:57:29.320Z,2.33
2023-05-08T08:00:05.021Z,2.38
2023-05-08T08:02:35.062Z,1.65
2023-05-08T08:05:05.358Z,2.60
2023-05-08T08:07:35.632Z,2.20
2023-05-08T08:10:10.863Z,2.58
2023-05-08T08:12:40.897Z,2.10
2023-05-08T08:15:12.595Z,1.90
2023-05-08T08:17:42.816Z,2.67
2023-05-08T08:20:13.914Z,2.30
2023-05-08T08:22:43.904Z,2.28
2023-05-08T08:25:16.601Z,2.00
2023-05-08T08:27:46.529Z,2.10
2023-05-08T08:30:18.656Z,2.33
2023-05-08T08:32:49.390Z,1.77
2023-05-08T08:35:19.726Z,1.80
2023-05-08T08:37:49.700Z,2.20
2023-05-08T08:40:22.385Z,2.60
2023-05-08T08:42:52.427Z,2.45
2023-05-08T08:45:22.656Z,2.40
2023-05-08T08:47:56.329Z,2.25
2023-05-08T08:50:28.961Z,2.63
2023-05-08T08:53:08.389Z,2.20
2023-05-08T08:55:49.782Z,2.28
2023-05-08T08:58:27.652Z,2.13
2023-05-08T09:00:58.911Z,1.98
2023-05-08T09:03:29.308Z,1.98
2023-05-08T09:06:02.559Z,2.10
2023-05-08T09:08:32.773Z,2.00
2023-05-08T09:11:05.827Z,2.10
2023-05-08T09:13:36.205Z,2.22
2023-05-08T09:16:06.610Z,1.83
2023-05-08T09:18:36.653Z,2.88
2023-05-08T09:21:08.858Z,1.90
2023-05-08T09:23:39.329Z,1.92
2023-05-08T09:26:11.961Z,2.00
2023-05-08T09:28:41.915Z,1.85
2023-05-08T09:31:11.899Z,1.60
2023-05-08T09:33:47.610Z,1.73
2023-05-08T09:36:29.607Z,2.15
2023-05-08T09:38:59.559Z,1.80
2023-05-08T09:41:32.420Z,1.95
2023-05-08T09:44:07.693Z,1.80
2023-05-08T09:46:38.318Z,1.67
2023-05-08T09:49:08.276Z,1.13
2023-05-08T09:51:38.350Z,2.00
2023-05-08T09:54:21.184Z,2.13
2023-05-08T09:56:53.841Z,1.95
2023-05-08T09:59:30.848Z,1.77
2023-05-08T10:02:02.594Z,2.00
2023-05-08T10:04:36.595Z,1.90
2023-05-08T10:07:07.324Z,2.00
2023-05-08T10:09:49.744Z,1.85
2023-05-08T10:12:24.706Z,2.20
2023-05-08T10:17:30.879Z,2.25
2023-05-08T10:20:03.982Z,2.20
2023-05-08T10:22:36.213Z,1.90
2023-05-08T10:25:07.256Z,1.58
2023-05-08T10:27:47.978Z,1.52
2023-05-08T10:30:23.641Z,1.42
2023-05-08T10:32:55.699Z,1.63
2023-05-08T10:35:26.365Z,1.98
2023-05-08T10:37:58.351Z,1.77
2023-05-08T10:40:28.577Z,1.80
2023-05-08T10:43:01.721Z,2.03
2023-05-08T10:45:32.858Z,1.02
2023-05-08T10:48:14.120Z,1.90
2023-05-08T10:51:00.900Z,1.95
2023-05-08T10:53:39.955Z,1.38
2023-05-08T10:56:10.314Z,1.63
2023-05-08T10:58:42.913Z,1.33
2023-05-08T11:01:20.021Z,1.92
2023-05-08T11:03:55.410Z,2.03
2023-05-08T11:06:49.348Z,2.17
2023-05-08T11:09:30.697Z,2.05
2023-05-08T11:12:11.148Z,2.47
2023-05-08T11:14:46.239Z,1.88
2023-05-08T11:17:16.252Z,1.65
2023-05-08T11:20:00.290Z,2.38
2023-05-08T11:22:33.285Z,1.95
2023-05-08T11:25:06.936Z,1.98
2023-05-08T11:27:42.890Z,1.65
2023-05-08T11:30:28.474Z,2.17
2023-05-08T11:33:17.112Z,2.13
2023-05-08T11:35:56.159Z,0.88
2023-05-08T11:38:32.531Z,1.80
2023-05-08T11:41:08.233Z,1.13
2023-05-08T11:44:14.953Z,1.75
2023-05-08T11:46:54.708Z,1.33
2023-05-08T11:49:29.395Z,1.92
2023-05-08T11:52:04.504Z,1.92
2023-05-08T11:57:04.555Z,1.67
2023-05-08T11:59:39.510Z,1.77
2023-05-08T12:02:12.084Z,1.55
2023-05-08T12:04:49.419Z,1.70
2023-05-08T12:07:20.714Z,1.75
2023-05-08T12:09:50.669Z,1.08
2023-05-08T12:12:20.623Z,1.48
2023-05-08T12:14:53.075Z,1.88
2023-05-08T12:17:25.843Z,1.75
2023-05-08T12:20:04.302Z,2.30
2023-05-08T12:22:34.453Z,2.05
2023-05-08T12:25:06.979Z,1.75
2023-05-08T12:27:37.174Z,1.92
2023-05-08T12:30:11.496Z,1.98
2023-05-08T12:32:46.148Z,1.90
2023-05-08T12:37:49.157Z,1.50
2023-05-08T12:40:31.666Z,1.80
2023-05-08T12:43:04.455Z,1.77
2023-05-08T12:45:38.653Z,1.20
2023-05-08T12:48:13.809Z,1.90
2023-05-08T12:50:45.983Z,1.63
2023-05-08T12:53:18.366Z,1.90
2023-05-08T12:55:56.030Z,1.60
2023-05-08T12:58:29.513Z,1.58
2023-05-08T13:01:13.665Z,1.95
2023-05-08T13:03:50.894Z,1.90
2023-05-08T13:06:29.485Z,2.08
2023-05-08T13:08:59.907Z,2.03
2023-05-08T13:11:34.591Z,2.20
2023-05-08T13:14:04.568Z,1.98
2023-05-08T13:16:45.936Z,1.90
2023-05-08T13:19:19.177Z,1.92
2023-05-08T13:21:49.721Z,1.95
2023-05-08T13:24:20.045Z,1.70
2023-05-08T13:26:50.005Z,1.77
2023-05-08T13:29:22.216Z,1.50
2023-05-08T13:31:52.246Z,2.08
2023-05-08T13:34:25.606Z,1.30
2023-05-08T13:36:55.722Z,1.70
2023-05-08T13:39:25.720Z,1.65
2023-05-08T13:41:55.686Z,2.22
2023-05-08T13:44:25.898Z,1.23
2023-05-08T13:46:55.868Z,2.10
2023-05-08T13:49:28.416Z,1.80
2023-05-08T13:51:58.390Z,1.60
2023-05-08T13:54:28.360Z,2.10
2023-05-08T13:56:58.631Z,1.70
2023-05-08T13:59:28.684Z,1.80
2023-05-08T14:01:58.726Z,1.90
2023-05-08T14:04:31.340Z,1.83
2023-05-08T14:07:02.081Z,1.90
2023-05-08T14:09:32.030Z,2.05
2023-05-08T14:12:02.149Z,1.83
2023-05-08T14:14:33.149Z,2.00
2023-05-08T14:17:04.532Z,2.03
2023-05-08T14:19:37.515Z,1.83
2023-05-08T14:22:07.628Z,1.90
2023-05-08T14:24:37.696Z,2.40
2023-05-08T14:27:07.687Z,1.90
2023-05-08T14:29:37.702Z,2.08
2023-05-08T14:32:09.486Z,1.05
2023-05-08T14:34:42.091Z,2.15
2023-05-08T14:37:13.052Z,2.22
2023-05-08T14:39:43.077Z,2.20
2023-05-08T14:44:45.940Z,2.30
2023-05-08T14:47:16.063Z,2.15
2023-05-08T14:49:48.610Z,2.00
2023-05-08T14:52:18.643Z,2.00
2023-05-08T14:54:53.644Z,2.00
2023-05-08T14:57:23.966Z,1.40
2023-05-08T14:59:55.793Z,2.35
2023-05-08T15:02:26.184Z,1.98
2023-05-08T15:04:58.810Z,2.33
2023-05-08T15:07:28.968Z,2.45
2023-05-08T15:09:58.941Z,2.20
2023-05-08T15:12:29.013Z,2.17
2023-05-08T15:14:59.434Z,1.25
2023-05-08T15:17:30.807Z,1.88
2023-05-08T15:20:03.730Z,1.90
2023-05-08T15:22:33.837Z,2.03
2023-05-08T15:25:04.095Z,2.47
2023-05-08T15:27:34.821Z,2.22
2023-05-08T15:30:05.071Z,2.38
2023-05-08T15:32:35.164Z,1.95
2023-05-08T15:35:09.477Z,1.80
2023-05-08T15:37:40.013Z,1.52
2023-05-08T15:40:11.776Z,1.73
2023-05-08T15:42:41.771Z,2.20
2023-05-08T15:45:13.131Z,1.92
2023-05-08T15:47:43.369Z,2.45
2023-05-08T15:50:16.196Z,2.50
2023-05-08T15:52:46.165Z,1.80
2023-05-08T15:55:17.743Z,2.83
2023-05-08T15:57:48.076Z,2.30
2023-05-08T16:00:20.078Z,2.97
2023-05-08T16:02:50.356Z,2.30
2023-05-08T16:05:23.042Z,2.40
2023-05-08T16:07:54.385Z,2.00
2023-05-08T16:10:24.470Z,2.30
2023-05-08T16:12:54.470Z,1.80
2023-05-08T16:15:24.549Z,2.30
2023-05-08T16:17:54.632Z,2.53
2023-05-08T16:20:27.692Z,2.92
2023-05-08T16:22:58.375Z,2.58
2023-05-08T16:25:28.929Z,3.00
2023-05-08T16:27:59.645Z,3.00
2023-05-08T16:30:29.957Z,3.10
2023-05-08T16:32:59.972Z,2.70
2023-05-08T16:35:33.503Z,2.33
2023-05-08T16:38:04.907Z,2.20
2023-05-08T16:40:35.036Z,1.90
2023-05-08T16:43:05.077Z,2.25
2023-05-08T16:45:35.539Z,2.45
2023-05-08T16:48:05.691Z,2.22
2023-05-08T16:50:38.327Z,2.15
2023-05-08T16:53:08.295Z,2.38
2023-05-08T16:55:38.267Z,2.35
2023-05-08T16:58:08.370Z,1.98
2023-05-08T17:00:38.473Z,2.45
2023-05-08T17:03:08.564Z,2.38
2023-05-08T17:05:41.349Z,2.72
2023-05-08T17:08:11.899Z,2.00
2023-05-08T17:10:42.217Z,2.55
2023-05-08T17:13:12.230Z,2.88
2023-05-08T17:15:42.207Z,2.83
2023-05-08T17:18:12.225Z,2.60
2023-05-08T17:20:44.787Z,2.47
2023-05-08T17:23:14.857Z,2.20
2023-05-08T17:25:44.966Z,1.90
2023-05-08T17:28:15.212Z,2.40
2023-05-08T17:30:46.479Z,2.30
2023-05-08T17:33:17.061Z,2.15
2023-05-08T17:35:49.660Z,2.92
2023-05-08T17:38:19.707Z,2.47
2023-05-08T17:40:49.773Z,2.63
2023-05-08T17:43:20.730Z,2.63
2023-05-08T17:45:51.068Z,2.63
2023-05-08T17:48:21.160Z,2.55
2023-05-08T17:50:53.737Z,2.97
2023-05-08T17:53:23.727Z,2.90
2023-05-08T17:55:54.285Z,2.67
2023-05-08T17:58:24.313Z,3.13
2023-05-08T18:00:55.405Z,2.63
2023-05-08T18:03:26.118Z,2.72
2023-05-08T18:05:58.781Z,2.72
2023-05-08T18:08:28.823Z,2.63
2023-05-08T18:10:58.960Z,2.60
2023-05-08T18:13:29.199Z,2.30
2023-05-08T18:15:59.296Z,2.20
2023-05-08T18:18:29.286Z,2.28
2023-05-08T18:21:01.900Z,2.13
2023-05-08T18:23:34.202Z,2.35
2023-05-08T18:26:04.461Z,2.20
2023-05-08T18:28:36.255Z,2.92
2023-05-08T18:31:06.297Z,3.13
2023-05-08T18:33:37.268Z,2.65
2023-05-08T18:36:10.227Z,2.70
2023-05-08T18:38:41.761Z,2.80
2023-05-08T18:41:11.916Z,3.00
2023-05-08T18:43:41.972Z,3.20
2023-05-08T18:46:13.323Z,3.15
2023-05-08T18:48:43.952Z,3.00
2023-05-08T18:51:16.624Z,3.55
2023-05-08T18:53:46.624Z,3.20
2023-05-08T18:56:16.628Z,2.88
2023-05-08T18:58:46.645Z,3.33
2023-05-08T19:01:20.138Z,3.38
2023-05-08T19:03:51.062Z,2.75
2023-05-08T19:06:23.914Z,3.13
2023-05-08T19:08:54.420Z,3.00
2023-05-08T19:11:24.554Z,3.85
2023-05-08T19:13:55.964Z,3.05
2023-05-08T19:16:26.561Z,3.30
2023-05-08T19:18:56.594Z,3.60
2023-05-08T19:21:29.225Z,3.25
2023-05-08T19:23:59.190Z,3.40
2023-05-08T19:26:29.266Z,3.60
2023-05-08T19:28:59.265Z,3.70
2023-05-08T19:31:29.568Z,3.88
2023-05-08T19:34:00.041Z,3.50
2023-05-08T19:36:33.288Z,3.53
2023-05-08T19:39:04.438Z,3.30
2023-05-08T19:41:34.557Z,3.63
2023-05-08T19:44:04.605Z,3.42
2023-05-08T19:46:34.712Z,3.28
2023-05-08T19:49:05.119Z,3.55
2023-05-08T19:51:37.773Z,3.25
2023-05-08T19:54:08.120Z,3.45
2023-05-08T19:56:38.169Z,3.30
2023-05-08T19:59:08.154Z,3.60
2023-05-08T20:01:38.186Z,3.22
2023-05-08T20:04:08.648Z,3.60
2023-05-08T20:06:41.392Z,3.30
2023-05-08T20:09:11.552Z,3.08
2023-05-08T20:11:41.561Z,3.65
2023-05-08T20:14:11.628Z,3.40
2023-05-08T20:16:42.059Z,3.47
2023-05-08T20:19:12.291Z,3.92
2023-05-08T20:21:44.912Z,3.85
2023-05-08T20:24:15.362Z,3.13
2023-05-08T20:26:45.413Z,3.58
2023-05-08T20:29:15.389Z,3.70
2023-05-08T20:31:45.433Z,3.80
2023-05-08T20:34:15.499Z,3.72
2023-05-08T20:36:48.705Z,3.38
2023-05-08T20:39:18.874Z,3.60
2023-05-08T20:41:48.879Z,4.07
2023-05-08T20:44:19.479Z,3.88
2023-05-08T20:46:49.455Z,3.58
2023-05-08T20:49:19.852Z,3.47
2023-05-08T20:51:52.455Z,3.75
2023-05-08T20:54:22.460Z,3.70
2023-05-08T20:56:52.414Z,4.30
2023-05-08T20:59:23.347Z,3.78
2023-05-08T21:01:53.312Z,3.60
2023-05-08T21:04:23.364Z,4.03
2023-05-08T21:06:56.054Z,3.90
2023-05-08T21:09:26.293Z,3.95
2023-05-08T21:11:56.261Z,3.45
2023-05-08T21:14:26.324Z,3.45
2023-05-08T21:16:56.778Z,3.65
2023-05-08T21:19:26.881Z,3.75
2023-05-08T21:21:59.423Z,3.50
2023-05-08T21:24:29.785Z,3.05
2023-05-08T21:26:59.858Z,3.60
2023-05-08T21:29:29.928Z,4.13
2023-05-08T21:31:59.925Z,3.88
2023-05-08T21:34:30.180Z,4.00
2023-05-08T21:37:02.765Z,3.58
2023-05-08T21:39:32.780Z,3.80
2023-05-08T21:42:03.362Z,3.70
2023-05-08T21:44:33.350Z,3.65
2023-05-08T21:47:03.842Z,3.60
2023-05-08T21:49:33.797Z,3.92
2023-05-08T21:52:06.520Z,4.50
2023-05-08T21:54:36.577Z,4.05
2023-05-08T21:57:07.660Z,4.20
2023-05-08T21:59:37.673Z,3.92
2023-05-08T22:02:07.786Z,4.05
2023-05-08T22:04:37.861Z,4.03
2023-05-08T22:07:10.488Z,3.67
2023-05-08T22:09:40.513Z,4.28
2023-05-08T22:12:11.813Z,3.92
2023-05-08T22:14:41.850Z,4.25
2023-05-08T22:17:11.847Z,4.20
2023-05-08T22:19:41.923Z,4.10
2023-05-08T22:22:14.480Z,4.53
2023-05-08T22:24:44.601Z,3.95
2023-05-08T22:27:14.628Z,3.70
2023-05-08T22:29:44.741Z,4.25
2023-05-08T22:32:14.757Z,4.07
2023-05-08T22:34:46.525Z,4.32
2023-05-08T22:37:19.300Z,4.30
2023-05-08T22:39:49.260Z,4.43
2023-05-08T22:42:19.621Z,4.22
2023-05-08T22:44:49.729Z,4.70
2023-05-08T22:47:20.062Z,4.07
2023-05-08T22:49:50.842Z,4.13
2023-05-08T22:52:23.384Z,4.72
2023-05-08T22:54:53.377Z,4.32
2023-05-08T22:57:23.365Z,4.57
2023-05-08T22:59:53.341Z,5.07
2023-05-08T23:02:23.472Z,5.15
2023-05-08T23:04:53.601Z,4.95
2023-05-08T23:07:26.429Z,5.30
2023-05-08T23:09:56.371Z,4.88
2023-05-08T23:12:26.362Z,4.75
2023-05-08T23:14:56.346Z,5.25
2023-05-08T23:17:26.544Z,5.13
2023-05-08T23:19:56.538Z,4.82
2023-05-08T23:22:29.599Z,5.18
2023-05-08T23:24:59.584Z,5.68
2023-05-08T23:27:29.565Z,5.10
2023-05-08T23:29:59.565Z,5.45
2023-05-08T23:32:29.560Z,5.28
2023-05-08T23:34:59.523Z,4.70
2023-05-08T23:37:32.211Z,5.28
2023-05-08T23:40:02.213Z,5.00
2023-05-08T23:42:32.213Z,5.30
2023-05-08T23:45:02.164Z,4.93
2023-05-08T23:47:32.177Z,4.85
2023-05-08T23:50:02.180Z,4.88
2023-05-08T23:52:34.748Z,4.50
2023-05-08T23:55:04.850Z,5.03
2023-05-08T23:57:34.796Z,4.70
